createdAt,value
2023-01-19T00:01:55.856Z,0.0
2023-01-19T00:07:02.257Z,0.0
2023-01-19T00:12:33.266Z,0.0
2023-01-19T00:17:15.567Z,0.0
2023-01-19T00:22:42.128Z,0.0
2023-01-19T00:27:51.453Z,0.0
2023-01-19T00:33:18.932Z,0.0
2023-01-19T00:37:41.256Z,0.0
2023-01-19T00:42:47.620Z,0.0
2023-01-19T00:47:54.092Z,0.0
2023-01-19T00:53:20.499Z,0.0
2023-01-19T00:58:26.863Z,0.0
2023-01-19T01:03:13.382Z,0.0
2023-01-19T01:13:27.735Z,0.0
2023-01-19T01:14:20.218Z,0.0
2023-01-19T01:18:52.565Z,0.0
2023-01-19T01:24:02.918Z,0.0
2023-01-19T01:28:45.271Z,0.0
2023-01-19T01:33:51.628Z,0.0
2023-01-19T01:38:58.030Z,0.0
2023-01-19T01:44:04.411Z,0.0
2023-01-19T01:49:10.780Z,0.0
2023-01-19T01:54:17.185Z,0.0
2023-01-19T01:59:47.592Z,0.0
2023-01-19T02:04:29.948Z,0.0
2023-01-19T02:09:36.358Z,0.0
2023-01-19T02:14:42.892Z,0.0
2023-01-19T02:20:13.514Z,0.0
2023-01-19T02:24:55.873Z,0.0
2023-01-19T02:30:02.215Z,0.0
2023-01-19T02:36:40.780Z,0.0
2023-01-19T02:40:15.002Z,0.0
2023-01-19T02:45:21.362Z,0.0
2023-01-19T02:50:27.726Z,0.0
2023-01-19T02:55:58.218Z,0.0
2023-01-19T03:01:00.687Z,0.0
2023-01-19T03:05:47.515Z,0.0
2023-01-19T03:10:53.878Z,0.0
2023-01-19T03:16:00.416Z,0.0
2023-01-19T03:21:06.681Z,0.0
2023-01-19T03:26:13.177Z,0.0
2023-01-19T03:31:19.762Z,0.0
2023-01-19T03:36:50.103Z,0.0
2023-01-19T03:41:56.485Z,0.0
2023-01-19T03:46:58.898Z,0.0
2023-01-19T03:52:57.651Z,0.0
2023-01-19T03:56:51.657Z,0.0
2023-01-19T04:01:48.191Z,0.0
2023-01-19T04:07:04.673Z,0.0
2023-01-19T04:12:31.039Z,0.0
2023-01-19T04:22:27.451Z,0.0
2023-01-19T04:27:57.799Z,0.0
2023-01-19T04:33:00.637Z,0.0
2023-01-19T04:37:36.556Z,0.0
2023-01-19T04:43:06.986Z,0.0
2023-01-19T04:47:59.336Z,0.0
2023-01-19T04:53:05.751Z,0.0
2023-01-19T04:58:12.092Z,0.0
2023-01-19T05:03:18.511Z,0.0
2023-01-19T05:08:25.028Z,0.0
2023-01-19T05:13:31.391Z,0.0
2023-01-19T05:18:37.807Z,0.0
2023-01-19T05:24:08.528Z,0.0
2023-01-19T05:28:50.539Z,0.0
2023-01-19T05:33:56.897Z,0.0
2023-01-19T05:39:03.279Z,0.0
2023-01-19T05:44:09.982Z,0.0
2023-01-19T05:49:16.380Z,0.0
2023-01-19T05:55:34.985Z,0.0
2023-01-19T05:59:53.460Z,0.0
2023-01-19T06:05:03.793Z,0.0
2023-01-19T06:09:42.102Z,0.0
2023-01-19T06:14:48.490Z,0.0
2023-01-19T06:19:55.028Z,0.0
2023-01-19T06:25:21.312Z,0.0
2023-01-19T06:30:07.661Z,0.0
2023-01-19T06:35:38.542Z,0.0
2023-01-19T06:40:20.830Z,0.0
2023-01-19T06:45:27.366Z,0.0
2023-01-19T06:50:33.816Z,0.0
2023-01-19T06:55:40.225Z,0.0
2023-01-19T07:00:46.640Z,0.0
2023-01-19T07:05:52.959Z,0.0
2023-01-19T07:11:26.140Z,4.0
2023-01-19T07:16:07.347Z,8.0
2023-01-19T07:21:12.095Z,12.0
2023-01-19T07:26:18.562Z,24.0
2023-01-19T07:31:25.158Z,20.0
2023-01-19T07:36:31.382Z,40.0
2023-01-19T07:41:57.932Z,60.0
2023-01-19T07:47:08.310Z,112.0
2023-01-19T07:51:51.212Z,124.0
2023-01-19T07:56:57.613Z,184.0
2023-01-19T08:02:04.257Z,300.0
2023-01-19T08:07:10.927Z,316.0
2023-01-19T08:12:17.323Z,472.0
2023-01-19T08:17:23.816Z,572.0
2023-01-19T08:22:54.239Z,652.0
2023-01-19T08:27:36.574Z,592.0
2023-01-19T08:32:43.025Z,588.0
2023-01-19T08:39:01.474Z,1056.0
2023-01-19T08:42:55.721Z,1008.0
2023-01-19T08:48:26.209Z,1060.0
2023-01-19T08:53:08.531Z,1896.0
2023-01-19T08:58:14.983Z,2388.0
2023-01-19T09:03:21.399Z,2552.0
2023-01-19T09:08:27.768Z,2556.0
2023-01-19T09:13:54.217Z,1804.0
2023-01-19T09:18:40.513Z,1696.0
2023-01-19T09:24:07.030Z,1352.0
2023-01-19T09:28:53.399Z,2004.0
2023-01-19T09:33:59.913Z,2180.0
2023-01-19T09:39:06.372Z,2844.0
2023-01-19T09:44:12.839Z,3420.0
2023-01-19T09:49:19.695Z,5212.0
2023-01-19T09:54:26.091Z,5116.0
2023-01-19T09:59:32.541Z,5008.0
2023-01-19T10:04:38.874Z,4424.0
2023-01-19T10:09:49.258Z,5352.0
2023-01-19T10:14:51.658Z,3924.0
2023-01-19T10:19:58.022Z,5656.0
2023-01-19T10:25:04.397Z,4712.0
2023-01-19T10:30:10.915Z,7028.0
2023-01-19T10:35:17.175Z,9028.0
2023-01-19T10:43:11.944Z,12460.0
2023-01-19T10:45:30.036Z,11980.0
2023-01-19T10:50:36.415Z,9352.0
2023-01-19T10:55:42.789Z,9168.0
2023-01-19T11:01:09.430Z,10348.0
2023-01-19T11:06:19.758Z,10788.0
2023-01-19T11:11:26.136Z,9792.0
2023-01-19T11:16:32.584Z,10568.0
2023-01-19T11:21:34.900Z,31040.0
2023-01-19T11:26:21.393Z,83520.0
2023-01-19T11:31:28.196Z,75616.0
2023-01-19T11:36:34.427Z,77536.0
2023-01-19T11:41:40.840Z,78528.0
2023-01-19T11:46:49.898Z,15436.0
2023-01-19T11:52:17.585Z,65696.0
2023-01-19T11:56:59.896Z,69888.0
2023-01-19T12:02:06.300Z,46656.0
2023-01-19T12:07:56.905Z,86432.0
2023-01-19T12:12:19.196Z,74368.0
2023-01-19T12:22:31.051Z,69248.0
2023-01-19T12:27:38.485Z,73472.0
2023-01-19T12:32:34.989Z,49056.0
2023-01-19T12:38:11.253Z,76256.0
2023-01-19T12:42:57.611Z,56416.0
2023-01-19T12:48:17.976Z,58624.0
2023-01-19T12:53:34.384Z,72704.0
2023-01-19T12:58:16.856Z,75520.0
2023-01-19T13:03:23.226Z,66784.0
2023-01-19T13:08:29.620Z,74720.0
2023-01-19T13:13:36.005Z,49472.0
2023-01-19T13:18:42.361Z,48544.0
2023-01-19T13:23:48.738Z,35616.0
2023-01-19T13:28:55.380Z,47008.0
2023-01-19T13:34:01.755Z,56384.0
2023-01-19T13:39:08.145Z,50368.0
2023-01-19T13:44:14.536Z,47808.0
2023-01-19T13:49:20.888Z,46144.0
2023-01-19T13:54:27.272Z,50688.0
2023-01-19T13:59:32.649Z,50464.0
2023-01-19T14:05:00.051Z,22272.0
2023-01-19T14:09:46.425Z,32416.0
2023-01-19T14:15:12.888Z,32768.0
2023-01-19T14:19:59.362Z,10004.0
2023-01-19T14:25:05.929Z,7996.0
2023-01-19T14:30:12.080Z,25536.0
2023-01-19T14:35:18.529Z,23104.0
2023-01-19T14:40:44.879Z,19776.0
2023-01-19T14:45:55.280Z,19488.0
2023-01-19T14:51:03.518Z,15872.0
2023-01-19T14:55:44.097Z,13088.0
2023-01-19T15:00:50.744Z,8684.0
2023-01-19T15:07:09.125Z,4508.0
2023-01-19T15:11:03.342Z,2852.0
2023-01-19T15:16:09.732Z,2112.0
2023-01-19T15:21:16.101Z,1496.0
2023-01-19T15:26:22.579Z,1148.0
2023-01-19T15:31:29.067Z,920.0
2023-01-19T15:36:35.493Z,764.0
2023-01-19T15:41:41.956Z,632.0
2023-01-19T15:47:47.423Z,456.0
2023-01-19T15:51:54.704Z,308.0
2023-01-19T15:57:01.114Z,200.0
2023-01-19T16:02:07.625Z,128.0
2023-01-19T16:07:13.927Z,68.0
2023-01-19T16:12:44.488Z,40.0
2023-01-19T16:17:26.819Z,16.0
2023-01-19T16:22:33.203Z,8.0
2023-01-19T16:27:39.594Z,4.0
2023-01-19T16:32:46.001Z,0.0
2023-01-19T16:38:16.405Z,0.0
2023-01-19T16:42:58.742Z,0.0
2023-01-19T16:48:29.377Z,0.0
2023-01-19T16:53:11.817Z,0.0
2023-01-19T16:58:42.230Z,0.0
2023-01-19T17:03:25.132Z,0.0
2023-01-19T17:08:31.592Z,0.0
2023-01-19T17:13:37.945Z,0.0
2023-01-19T17:19:28.391Z,0.0
2023-01-19T17:23:50.727Z,0.0
2023-01-19T17:28:57.202Z,0.0
2023-01-19T17:34:23.829Z,0.0
2023-01-19T17:39:10.401Z,0.0
2023-01-19T17:44:16.862Z,0.0
2023-01-19T17:49:47.355Z,0.0
2023-01-19T17:54:29.728Z,0.0
2023-01-19T18:04:37.061Z,0.0
2023-01-19T18:04:43.071Z,0.0
2023-01-19T18:09:40.534Z,0.0
2023-01-19T18:14:46.898Z,0.0
2023-01-19T18:20:03.297Z,0.0
2023-01-19T18:25:09.713Z,0.0
2023-01-19T18:30:16.071Z,0.0
2023-01-19T18:35:22.453Z,0.0
2023-01-19T18:40:28.865Z,0.0
2023-01-19T18:45:35.283Z,0.0
2023-01-19T18:50:41.838Z,0.0
2023-01-19T18:55:48.944Z,0.0
2023-01-19T19:00:54.645Z,0.0
2023-01-19T19:07:33.187Z,0.0
2023-01-19T19:11:27.428Z,0.0
2023-01-19T19:16:13.853Z,0.0
2023-01-19T19:21:20.134Z,0.0
2023-01-19T19:26:50.585Z,0.0
2023-01-19T19:31:52.909Z,0.0
2023-01-19T19:37:23.388Z,0.0
2023-01-19T19:42:05.751Z,0.0
2023-01-19T19:46:52.189Z,0.0
2023-01-19T19:52:18.557Z,0.0
2023-01-19T19:57:04.926Z,0.0
2023-01-19T20:03:23.439Z,0.0
2023-01-19T20:07:18.016Z,0.0
2023-01-19T20:12:24.216Z,0.0
2023-01-19T20:17:54.848Z,0.0
2023-01-19T20:22:37.402Z,0.0
2023-01-19T20:27:45.037Z,0.0
2023-01-19T20:34:02.283Z,0.0
2023-01-19T20:37:56.580Z,0.0
2023-01-19T20:43:26.980Z,0.0
2023-01-19T20:48:33.354Z,0.0
2023-01-19T20:53:05.772Z,0.0
2023-01-19T20:58:22.143Z,0.0
2023-01-19T21:03:52.557Z,0.0
2023-01-19T21:08:54.944Z,0.0
2023-01-19T21:13:41.276Z,0.0
2023-01-19T21:18:47.671Z,0.0
2023-01-19T21:23:54.062Z,0.0
2023-01-19T21:29:00.694Z,0.0
2023-01-19T21:34:31.171Z,0.0
2023-01-19T21:39:15.355Z,0.0
2023-01-19T21:44:44.503Z,0.0
2023-01-19T21:49:26.822Z,0.0
2023-01-19T21:54:33.207Z,0.0
2023-01-19T22:04:46.023Z,0.0
2023-01-19T22:05:40.066Z,0.0
2023-01-19T22:10:52.463Z,0.0
2023-01-19T22:14:58.758Z,0.0
2023-01-19T22:20:05.162Z,0.0
2023-01-19T22:25:11.884Z,0.0
2023-01-19T22:31:02.049Z,0.0
2023-01-19T22:36:08.365Z,0.0
2023-01-19T22:40:30.647Z,0.0
2023-01-19T22:45:37.105Z,0.0
2023-01-19T22:50:43.464Z,0.0
2023-01-19T22:56:09.887Z,0.0
2023-01-19T23:00:56.401Z,0.0
2023-01-19T23:06:02.616Z,0.0
2023-01-19T23:11:09.119Z,0.0
2023-01-19T23:16:15.691Z,0.0
2023-01-19T23:21:22.055Z,0.0
2023-01-19T23:26:28.501Z,0.0
2023-01-19T23:31:55.129Z,0.0
2023-01-19T23:37:01.490Z,0.0
2023-01-19T23:41:47.880Z,0.0
2023-01-19T23:46:54.247Z,0.0
2023-01-19T23:53:00.796Z,0.0
2023-01-19T23:56:56.994Z,0.0
